MOL Paramount — 3ECH9 — position and weather

sailwx.info

Track history (hours):
 
Tides and Currents Weather Stations Pressure Air Temp Water Temp Dewpoint Dewpoint Depression Visibility Wind Speed Wind Dir Waves Ship Positions

MOL Paramount

Last reported at 2014-Oct-01 17:34 UTC. Time now 2014-Oct-01 18:22 UTC.
Position N 01°16' E 103°51'.

Length 293 m; draft 12.5 m.

Type: Cargo ship. MMSI: 371519000.

Date/timePositionNaut miles runAvg speedWind from/ knotsBaromVisibWave heightAir tempDewpointWater temp
2014-Oct-01 17:34N 01°16' E 103°51'0 0.0
2014-Oct-01 16:34N 01°16' E 103°51'0 0.0
2014-Oct-01 15:31N 01°16' E 103°51'2 2.3
2014-Oct-01 14:33N 01°14' E 103°53'3 2.8
2014-Oct-01 13:33N 01°12' E 103°52'5 5.2
2014-Oct-01 12:33N 01°09' E 103°48'7 7.1
2014-Oct-01 11:33N 01°05' E 103°42'5 5.4
2014-Oct-01 10:33N 01°04' E 103°37'6 5.2
2014-Oct-01 09:27N 01°07' E 103°32'10 5.1
2014-Oct-01 07:33N 01°12' E 103°24'  
Track history (hours):
 
Tides and Currents Weather Stations Pressure Air Temp Water Temp Dewpoint Dewpoint Depression Visibility Wind Speed Wind Dir Waves Ship Positions

MOL Paramount

Last reported at 2014-Oct-01 17:34 UTC. Time now 2014-Oct-01 18:22 UTC.
Position N 01°16' E 103°51'.

Length 293 m; draft 12.5 m.

Type: Cargo ship. MMSI: 371519000.

Date/timePositionNaut miles runAvg speedWind from/ knotsBaromVisibWave heightAir tempDewpointWater temp
2014-Oct-01 17:34N 01°16' E 103°51'0 0.0
2014-Oct-01 16:34N 01°16' E 103°51'0 0.0
2014-Oct-01 15:31N 01°16' E 103°51'2 2.3
2014-Oct-01 14:33N 01°14' E 103°53'3 2.8
2014-Oct-01 13:33N 01°12' E 103°52'5 5.2
2014-Oct-01 12:33N 01°09' E 103°48'7 7.1
2014-Oct-01 11:33N 01°05' E 103°42'5 5.4
2014-Oct-01 10:33N 01°04' E 103°37'6 5.2
2014-Oct-01 09:27N 01°07' E 103°32'10 5.1
2014-Oct-01 07:33N 01°12' E 103°24'  

Dump ship's entire track history